Wetterdaten: Woche 26.02.18 - 04.03.18 (KW9)
Datum Zeit Temp. I. Temp. A. Feuchte I. Feuchte A. Luftdruck Regen Wind Richtung Sonnenschein UV Solar Taupunkt Windchill Windben
26.02.2018 00:00 22,7 C -10,4 C 55 % 66 % 1027,5 hPa 0,0 l/m 5,1 km/h (1 Bft) N 0,00 h 0,0 UV-I 0 W/m -15,4 C -10,6 C 8,0 km/h (2 Bft)
26.02.2018 01:00 22,7 C -10,8 C 55 % 69 % 1027,2 hPa 0,0 l/m 5,1 km/h (1 Bft) N-NO 0,00 h 0,0 UV-I 0 W/m -15,4 C -11,1 C 8,3 km/h (2 Bft)
26.02.2018 02:00 22,7 C -11,1 C 56 % 71 % 1026,9 hPa 0,0 l/m 6,2 km/h (2 Bft) N-NO 0,00 h 0,0 UV-I 0 W/m -15,3 C -11,5 C 9,5 km/h (2 Bft)
26.02.2018 03:00 22,6 C -11,5 C 56 % 73 % 1026,7 hPa 0,0 l/m 4,9 km/h (1 Bft) N 0,00 h 0,0 UV-I 0 W/m -15,4 C -11,6 C 8,4 km/h (2 Bft)
26.02.2018 04:00 22,6 C -12,1 C 56 % 74 % 1026,6 hPa 0,0 l/m 3,0 km/h (1 Bft) N 0,00 h 0,0 UV-I 0 W/m -15,8 C -12,1 C 5,8 km/h (2 Bft)
26.02.2018 05:00 22,6 C -12,6 C 56 % 76 % 1026,5 hPa 0,0 l/m 5,7 km/h (1 Bft) N-NW 0,00 h 0,0 UV-I 0 W/m -16,0 C -13,3 C 8,4 km/h (2 Bft)
26.02.2018 06:00 22,5 C -13,2 C 56 % 78 % 1026,3 hPa 0,0 l/m 5,1 km/h (1 Bft) N-NW 0,00 h 0,0 UV-I 0 W/m -16,1 C -13,4 C 7,5 km/h (2 Bft)
26.02.2018 07:00 22,5 C -13,3 C 56 % 80 % 1026,2 hPa 0,0 l/m 2,3 km/h (1 Bft) N-NW 0,00 h 0,0 UV-I 20 W/m -15,9 C -13,3 C 4,1 km/h (1 Bft)
26.02.2018 08:00 22,8 C -11,2 C 56 % 79 % 1026,1 hPa 0,0 l/m 5,4 km/h (1 Bft) N-NW 0,38 h 0,5 UV-I 145 W/m -14,1 C -11,7 C 8,8 km/h (2 Bft)
26.02.2018 09:00 24,1 C -8,4 C 54 % 66 % 1025,5 hPa 0,0 l/m 9,0 km/h (2 Bft) N-NO 0,92 h 0,9 UV-I 334 W/m -13,5 C -11,9 C 14,2 km/h (3 Bft)
26.02.2018 10:00 25,1 C -6,2 C 50 % 52 % 1025,0 hPa 0,0 l/m 10,2 km/h (2 Bft) N-NO 1,00 h 1,3 UV-I 474 W/m -14,4 C -10,5 C 16,7 km/h (3 Bft)
26.02.2018 11:00 25,1 C -4,6 C 49 % 45 % 1024,4 hPa 0,0 l/m 8,8 km/h (2 Bft) N 1,00 h 1,6 UV-I 526 W/m -14,6 C -7,4 C 15,0 km/h (3 Bft)
26.02.2018 12:00 25,3 C -3,4 C 48 % 42 % 1023,6 hPa 0,0 l/m 10,7 km/h (2 Bft) N-NO 1,00 h 1,7 UV-I 548 W/m -14,4 C -7,8 C 16,7 km/h (3 Bft)
26.02.2018 13:00 25,2 C -3,2 C 47 % 41 % 1023,1 hPa 0,0 l/m 10,4 km/h (2 Bft) N 0,97 h 1,5 UV-I 486 W/m -14,5 C -7,3 C 17,9 km/h (3 Bft)
26.02.2018 14:00 24,9 C -3,0 C 46 % 39 % 1022,6 hPa 0,0 l/m 11,3 km/h (2 Bft) N 0,97 h 1,2 UV-I 407 W/m -15,1 C -7,7 C 18,1 km/h (3 Bft)
26.02.2018 15:00 24,6 C -4,1 C 46 % 41 % 1022,5 hPa 0,0 l/m 11,1 km/h (2 Bft) N-NO 0,53 h 0,7 UV-I 220 W/m -15,3 C -8,8 C 17,9 km/h (3 Bft)
26.02.2018 16:00 24,0 C -5,5 C 47 % 46 % 1022,5 hPa 0,0 l/m 11,7 km/h (2 Bft) N-NO 0,12 h 0,5 UV-I 94 W/m -15,2 C -10,9 C 17,9 km/h (3 Bft)
26.02.2018 17:00 23,6 C -6,9 C 49 % 54 % 1022,6 hPa 0,0 l/m 11,2 km/h (2 Bft) N 0,00 h 0,0 UV-I 22 W/m -14,7 C -11,9 C 17,4 km/h (3 Bft)
26.02.2018 18:00 23,6 C -8,4 C 51 % 61 % 1022,8 hPa 0,0 l/m 9,9 km/h (2 Bft) N-NO 0,00 h 0,0 UV-I 0 W/m -14,6 C -12,5 C 15,7 km/h (3 Bft)
26.02.2018 19:00 23,2 C -9,4 C 52 % 66 % 1022,8 hPa 0,0 l/m 8,0 km/h (2 Bft) N 0,00 h 0,0 UV-I 0 W/m -14,6 C -11,7 C 13,2 km/h (3 Bft)
26.02.2018 20:00 23,1 C -10,0 C 54 % 69 % 1022,6 hPa 0,0 l/m 6,4 km/h (2 Bft) N 0,00 h 0,0 UV-I 0 W/m -14,5 C -10,7 C 10,3 km/h (2 Bft)
26.02.2018 21:00 23,1 C -10,3 C 54 % 71 % 1022,4 hPa 0,0 l/m 3,8 km/h (1 Bft) N-NO 0,00 h 0,0 UV-I 0 W/m -14,6 C -10,4 C 7,5 km/h (2 Bft)
26.02.2018 22:00 23,0 C -11,0 C 54 % 71 % 1022,2 hPa 0,0 l/m 3,1 km/h (1 Bft) N-NO 0,00 h 0,0 UV-I 0 W/m -15,2 C -11,0 C 6,4 km/h (2 Bft)
26.02.2018 23:00 22,9 C -11,7 C 55 % 73 % 1021,9 hPa 0,0 l/m 2,5 km/h (1 Bft) N-NO 0,00 h 0,0 UV-I 0 W/m -15,5 C -11,7 C 4,9 km/h (1 Bft)
27.02.2018 00:00 22,9 C -12,0 C 55 % 76 % 1021,9 hPa 0,0 l/m 1,7 km/h (1 Bft) N-NO 0,00 h 0,0 UV-I 0 W/m -15,4 C -12,0 C 3,9 km/h (1 Bft)
27.02.2018 01:00 22,8 C -12,4 C 55 % 77 % 1021,6 hPa 0,0 l/m 3,1 km/h (1 Bft) N-NO 0,00 h 0,0 UV-I 0 W/m -15,6 C -12,4 C 5,4 km/h (1 Bft)
27.02.2018 02:00 22,8 C -12,8 C 55 % 78 % 1021,2 hPa 0,0 l/m 4,0 km/h (1 Bft) N 0,00 h 0,0 UV-I 0 W/m -15,9 C -13,1 C 6,7 km/h (2 Bft)
27.02.2018 03:00 22,7 C -13,2 C 56 % 80 % 1020,8 hPa 0,0 l/m 5,6 km/h (1 Bft) N 0,00 h 0,0 UV-I 0 W/m -15,9 C -13,9 C 9,2 km/h (2 Bft)
27.02.2018 04:00 22,7 C -13,2 C 56 % 80 % 1020,5 hPa 0,0 l/m 4,3 km/h (1 Bft) N-NO 0,00 h 0,0 UV-I 0 W/m -15,9 C -13,2 C 7,4 km/h (2 Bft)
27.02.2018 05:00 22,7 C -13,4 C 56 % 80 % 1020,1 hPa 0,0 l/m 4,3 km/h (1 Bft) N 0,00 h 0,0 UV-I 0 W/m -16,1 C -13,4 C 7,6 km/h (2 Bft)
27.02.2018 06:00 22,6 C -13,8 C 56 % 81 % 1020,0 hPa 0,0 l/m 3,8 km/h (1 Bft) N-NW 0,00 h 0,0 UV-I 0 W/m -16,4 C -13,8 C 6,4 km/h (2 Bft)
27.02.2018 07:00 22,6 C -14,2 C 56 % 83 % 1019,9 hPa 0,0 l/m 5,1 km/h (1 Bft) N 0,00 h 0,0 UV-I 25 W/m -16,4 C -14,3 C 8,4 km/h (2 Bft)
27.02.2018 08:00 22,8 C -12,6 C 55 % 82 % 1019,8 hPa 0,0 l/m 4,4 km/h (1 Bft) N 0,53 h 0,5 UV-I 161 W/m -15,1 C -12,7 C 7,7 km/h (2 Bft)
27.02.2018 09:00 23,4 C -11,3 C 54 % 75 % 1019,7 hPa 0,0 l/m 3,8 km/h (1 Bft) N-NO 0,50 h 0,8 UV-I 198 W/m -14,8 C -11,5 C 7,7 km/h (2 Bft)
27.02.2018 10:00 23,6 C -9,8 C 54 % 70 % 1019,3 hPa 0,0 l/m 4,2 km/h (1 Bft) N-NO 0,97 h 1,1 UV-I 266 W/m -14,3 C -10,2 C 7,6 km/h (2 Bft)
27.02.2018 11:00 24,1 C -7,5 C 51 % 60 % 1019,2 hPa 0,0 l/m 3,6 km/h (1 Bft) N-NO 1,00 h 1,5 UV-I 482 W/m -13,8 C -7,7 C 6,9 km/h (2 Bft)
27.02.2018 12:00 24,5 C -6,3 C 50 % 54 % 1018,7 hPa 0,0 l/m 3,3 km/h (1 Bft) N 1,00 h 1,6 UV-I 492 W/m -14,1 C -6,5 C 6,0 km/h (2 Bft)
27.02.2018 13:00 24,7 C -4,6 C 50 % 45 % 1018,2 hPa 0,0 l/m 5,0 km/h (1 Bft) N-NW 1,00 h 1,5 UV-I 502 W/m -14,6 C -5,6 C 9,9 km/h (2 Bft)
27.02.2018 14:00 24,7 C -5,3 C 50 % 44 % 1018,0 hPa 0,0 l/m 7,3 km/h (2 Bft) O 1,00 h 1,2 UV-I 394 W/m -15,7 C -7,1 C 13,5 km/h (3 Bft)
27.02.2018 15:00 24,4 C -5,7 C 50 % 44 % 1017,9 hPa 0,0 l/m 7,2 km/h (2 Bft) O-NO 1,00 h 0,8 UV-I 294 W/m -15,9 C -7,4 C 14,7 km/h (3 Bft)
27.02.2018 16:00 23,9 C -6,2 C 51 % 46 % 1018,2 hPa 0,0 l/m 7,0 km/h (2 Bft) O-NO 0,35 h 0,5 UV-I 125 W/m -15,9 C -8,1 C 13,2 km/h (3 Bft)
27.02.2018 17:00 23,5 C -7,5 C 52 % 50 % 1018,8 hPa 0,0 l/m 5,8 km/h (2 Bft) O-NO 0,00 h 0,0 UV-I 20 W/m -16,0 C -8,4 C 11,7 km/h (2 Bft)
27.02.2018 18:00 23,2 C -8,3 C 53 % 54 % 1019,3 hPa 0,0 l/m 2,0 km/h (1 Bft) N-NO 0,00 h 0,0 UV-I 0 W/m -15,8 C -8,3 C 4,8 km/h (1 Bft)
27.02.2018 19:00 22,9 C -8,7 C 54 % 59 % 1019,5 hPa 0,0 l/m 2,2 km/h (1 Bft) NO 0,00 h 0,0 UV-I 0 W/m -15,3 C -8,7 C 5,4 km/h (1 Bft)
27.02.2018 20:00 22,6 C -9,3 C 54 % 61 % 1019,9 hPa 0,0 l/m 3,2 km/h (1 Bft) N-NO 0,00 h 0,0 UV-I 0 W/m -15,4 C -9,3 C 6,9 km/h (2 Bft)
27.02.2018 21:00 22,4 C -10,1 C 55 % 64 % 1020,4 hPa 0,0 l/m 3,6 km/h (1 Bft) NO 0,00 h 0,0 UV-I 0 W/m -15,6 C -10,2 C 7,7 km/h (2 Bft)
27.02.2018 22:00 22,5 C -10,7 C 55 % 67 % 1020,6 hPa 0,0 l/m 4,9 km/h (1 Bft) O-NO 0,00 h 0,0 UV-I 0 W/m -15,6 C -11,0 C 9,3 km/h (2 Bft)
27.02.2018 23:00 22,6 C -11,2 C 56 % 70 % 1020,7 hPa 0,0 l/m 1,4 km/h (1 Bft) NO 0,00 h 0,0 UV-I 0 W/m -15,6 C -11,2 C 3,6 km/h (1 Bft)
28.02.2018 00:00 22,6 C -11,7 C 55 % 73 % 1020,8 hPa 0,0 l/m 3,6 km/h (1 Bft) N-NO 0,00 h 0,0 UV-I 0 W/m -15,6 C -11,7 C 6,3 km/h (2 Bft)
28.02.2018 01:00 22,6 C -12,1 C 55 % 75 % 1020,9 hPa 0,0 l/m 5,5 km/h (1 Bft) N-NO 0,00 h 0,0 UV-I 0 W/m -15,6 C -12,2 C 8,4 km/h (2 Bft)
28.02.2018 02:00 22,6 C -12,4 C 55 % 77 % 1020,9 hPa 0,0 l/m 5,7 km/h (1 Bft) N-NO 0,00 h 0,0 UV-I 0 W/m -15,6 C -12,4 C 8,1 km/h (2 Bft)
28.02.2018 03:00 22,6 C -12,8 C 55 % 78 % 1020,7 hPa 0,0 l/m 3,9 km/h (1 Bft) N 0,00 h 0,0 UV-I 0 W/m -15,8 C -12,8 C 6,4 km/h (2 Bft)
28.02.2018 04:00 22,6 C -13,5 C 55 % 78 % 1020,8 hPa 0,0 l/m 3,9 km/h (1 Bft) N 0,00 h 0,0 UV-I 0 W/m -16,5 C -13,5 C 5,9 km/h (2 Bft)
28.02.2018 05:00 22,5 C -14,1 C 55 % 80 % 1021,3 hPa 0,0 l/m 2,6 km/h (1 Bft) N 0,00 h 0,0 UV-I 0 W/m -16,7 C -14,1 C 4,8 km/h (1 Bft)
28.02.2018 06:00 22,4 C -13,9 C 55 % 82 % 1021,6 hPa 0,0 l/m 4,3 km/h (1 Bft) N 0,00 h 0,0 UV-I 0 W/m -16,4 C -13,9 C 6,6 km/h (2 Bft)
28.02.2018 07:00 22,4 C -13,1 C 55 % 82 % 1021,9 hPa 0,0 l/m 5,0 km/h (1 Bft) N 0,00 h 0,0 UV-I 21 W/m -15,5 C -13,2 C 7,8 km/h (2 Bft)
28.02.2018 08:00 22,5 C -12,0 C 55 % 77 % 1022,1 hPa 0,0 l/m 5,6 km/h (1 Bft) O-NO 0,15 h 0,5 UV-I 114 W/m -15,2 C -12,7 C 11,0 km/h (2 Bft)
28.02.2018 09:00 23,0 C -11,0 C 54 % 72 % 1022,6 hPa 0,0 l/m 6,7 km/h (2 Bft) O-NO 0,53 h 0,7 UV-I 185 W/m -15,0 C -12,4 C 12,6 km/h (3 Bft)
28.02.2018 10:00 23,5 C -10,0 C 52 % 68 % 1022,8 hPa 0,0 l/m 6,3 km/h (2 Bft) O-NO 1,00 h 1,1 UV-I 312 W/m -14,8 C -11,5 C 12,1 km/h (2 Bft)
28.02.2018 11:00 23,4 C -9,7 C 52 % 66 % 1023,2 hPa 0,0 l/m 7,0 km/h (2 Bft) O-NO 0,92 h 1,1 UV-I 191 W/m -14,7 C -11,6 C 12,5 km/h (3 Bft)
28.02.2018 12:00 23,2 C -9,2 C 53 % 64 % 1023,1 hPa 0,0 l/m 6,5 km/h (2 Bft) O-NO 1,00 h 1,1 UV-I 220 W/m -14,8 C -10,7 C 12,2 km/h (2 Bft)
28.02.2018 13:00 22,9 C -8,5 C 53 % 63 % 1022,9 hPa 0,0 l/m 7,7 km/h (2 Bft) O-NO 1,00 h 1,0 UV-I 208 W/m -14,3 C -11,0 C 15,1 km/h (3 Bft)
28.02.2018 14:00 22,9 C -8,4 C 53 % 61 % 1022,9 hPa 0,0 l/m 6,6 km/h (2 Bft) O-NO 1,00 h 0,8 UV-I 184 W/m -14,6 C -10,2 C 13,6 km/h (3 Bft)
28.02.2018 15:00 22,8 C -7,8 C 53 % 60 % 1022,7 hPa 0,0 l/m 8,4 km/h (2 Bft) NO 0,38 h 0,6 UV-I 152 W/m -14,2 C -10,8 C 16,1 km/h (3 Bft)
28.02.2018 16:00 22,7 C -8,0 C 53 % 61 % 1022,6 hPa 0,0 l/m 8,5 km/h (2 Bft) O-NO 0,13 h 0,0 UV-I 89 W/m -14,2 C -11,1 C 15,3 km/h (3 Bft)
28.02.2018 17:00 22,6 C -8,8 C 54 % 63 % 1022,1 hPa 0,0 l/m 5,8 km/h (2 Bft) O-NO 0,00 h 0,0 UV-I 19 W/m -14,4 C -9,5 C 11,1 km/h (2 Bft)
28.02.2018 18:00 22,6 C -9,3 C 57 % 65 % 1022,4 hPa 0,0 l/m 3,7 km/h (1 Bft) O-NO 0,00 h 0,0 UV-I 0 W/m -14,6 C -9,5 C 7,4 km/h (2 Bft)
28.02.2018 19:00 22,4 C -9,7 C 56 % 66 % 1022,6 hPa 0,0 l/m 3,9 km/h (1 Bft) O-SO 0,00 h 0,0 UV-I 0 W/m -14,8 C -10,3 C 7,7 km/h (2 Bft)
28.02.2018 20:00 22,3 C -10,1 C 56 % 68 % 1022,1 hPa 0,0 l/m 3,9 km/h (1 Bft) O-NO 0,00 h 0,0 UV-I 0 W/m -14,8 C -10,3 C 8,7 km/h (2 Bft)
28.02.2018 21:00 22,2 C -10,4 C 56 % 70 % 1021,7 hPa 0,0 l/m 6,3 km/h (2 Bft) O-NO 0,00 h 0,0 UV-I 0 W/m -14,8 C -12,0 C 12,6 km/h (3 Bft)
28.02.2018 22:00 22,1 C -10,5 C 57 % 72 % 1021,5 hPa 0,0 l/m 6,7 km/h (2 Bft) O-NO 0,00 h 0,0 UV-I 0 W/m -14,6 C -12,3 C 12,8 km/h (3 Bft)
28.02.2018 23:00 22,1 C -10,8 C 58 % 74 % 1021,0 hPa 0,0 l/m 5,4 km/h (1 Bft) O-NO 0,00 h 0,0 UV-I 0 W/m -14,6 C -11,7 C 11,1 km/h (2 Bft)
01.03.2018 00:00 21,9 C -11,1 C 58 % 75 % 1020,4 hPa 0,0 l/m 5,5 km/h (1 Bft) O-NO 0,00 h 0,0 UV-I 0 W/m -14,7 C -11,9 C 10,9 km/h (2 Bft)
01.03.2018 01:00 21,8 C -11,3 C 58 % 76 % 1020,0 hPa 0,0 l/m 6,5 km/h (2 Bft) O-NO 0,00 h 0,0 UV-I 0 W/m -14,7 C -12,8 C 11,6 km/h (2 Bft)
01.03.2018 02:00 21,8 C -11,7 C 58 % 76 % 1019,5 hPa 0,0 l/m 6,5 km/h (2 Bft) O-NO 0,00 h 0,0 UV-I 0 W/m -15,1 C -13,1 C 11,7 km/h (2 Bft)
01.03.2018 03:00 21,9 C -12,0 C 58 % 77 % 1018,1 hPa 0,0 l/m 5,9 km/h (2 Bft) O 0,00 h 0,0 UV-I 0 W/m -15,2 C -13,1 C 11,3 km/h (2 Bft)
01.03.2018 04:00 21,9 C -12,2 C 58 % 77 % 1017,4 hPa 0,0 l/m 4,4 km/h (1 Bft) O-SO 0,00 h 0,0 UV-I 0 W/m -15,4 C -12,5 C 9,2 km/h (2 Bft)
01.03.2018 05:00 21,9 C -12,3 C 57 % 78 % 1017,0 hPa 0,0 l/m 5,7 km/h (1 Bft) O-NO 0,00 h 0,0 UV-I 0 W/m -15,4 C -13,4 C 10,8 km/h (2 Bft)
01.03.2018 06:00 21,9 C -12,6 C 57 % 79 % 1016,4 hPa 0,0 l/m 6,6 km/h (2 Bft) O-NO 0,00 h 0,0 UV-I 6 W/m -15,5 C -13,8 C 11,7 km/h (2 Bft)
01.03.2018 07:00 21,9 C -12,7 C 57 % 80 % 1015,6 hPa 0,0 l/m 6,3 km/h (2 Bft) O-NO 0,00 h 0,0 UV-I 33 W/m -15,4 C -14,1 C 11,6 km/h (2 Bft)
01.03.2018 08:00 22,3 C -11,3 C 57 % 77 % 1015,0 hPa 0,0 l/m 6,7 km/h (2 Bft) O-NO 0,53 h 0,5 UV-I 157 W/m -14,6 C -12,9 C 12,9 km/h (3 Bft)
01.03.2018 09:00 23,3 C -9,5 C 55 % 71 % 1014,5 hPa 0,0 l/m 9,7 km/h (2 Bft) O-NO 0,95 h 0,8 UV-I 255 W/m -13,8 C -13,4 C 16,6 km/h (3 Bft)
01.03.2018 10:00 23,9 C -7,6 C 53 % 64 % 1013,4 hPa 0,0 l/m 9,5 km/h (2 Bft) O-NO 1,00 h 1,3 UV-I 394 W/m -13,3 C -11,3 C 18,3 km/h (3 Bft)
01.03.2018 11:00 24,3 C -5,4 C 52 % 56 % 1012,4 hPa 0,0 l/m 12,9 km/h (3 Bft) O-NO 1,00 h 1,7 UV-I 520 W/m -12,7 C -11,7 C 23,6 km/h (4 Bft)
01.03.2018 12:00 24,6 C -3,9 C 51 % 51 % 1011,9 hPa 0,0 l/m 10,2 km/h (2 Bft) O-NO 1,00 h 1,8 UV-I 530 W/m -12,5 C -7,9 C 19,5 km/h (3 Bft)
01.03.2018 13:00 24,6 C -3,3 C 50 % 48 % 1011,6 hPa 0,0 l/m 10,5 km/h (2 Bft) O-NO 1,00 h 1,6 UV-I 488 W/m -12,8 C -7,2 C 19,8 km/h (4 Bft)
01.03.2018 14:00 24,3 C -2,9 C 51 % 47 % 1010,7 hPa 0,0 l/m 9,2 km/h (2 Bft) O-NO 1,00 h 1,2 UV-I 405 W/m -12,7 C -6,1 C 17,6 km/h (3 Bft)
01.03.2018 15:00 23,9 C -2,8 C 53 % 46 % 1010,3 hPa 0,0 l/m 11,1 km/h (2 Bft) O-NO 0,98 h 0,8 UV-I 260 W/m -12,8 C -7,3 C 20,6 km/h (4 Bft)
01.03.2018 16:00 23,5 C -3,7 C 52 % 48 % 1010,0 hPa 0,0 l/m 8,7 km/h (2 Bft) O-NO 0,12 h 0,5 UV-I 106 W/m -13,1 C -6,5 C 16,3 km/h (3 Bft)
01.03.2018 17:00 23,1 C -4,7 C 54 % 51 % 1009,7 hPa 0,0 l/m 8,3 km/h (2 Bft) O-NO 0,00 h 0,0 UV-I 25 W/m -13,3 C -7,5 C 15,9 km/h (3 Bft)
01.03.2018 18:00 22,8 C -5,8 C 54 % 56 % 1009,5 hPa 0,0 l/m 7,4 km/h (2 Bft) O-NO 0,00 h 0,0 UV-I 0 W/m -13,2 C -7,7 C 14,0 km/h (3 Bft)
01.03.2018 19:00 22,6 C -6,9 C 55 % 62 % 1009,5 hPa 0,0 l/m 4,9 km/h (1 Bft) O-NO 0,00 h 0,0 UV-I 0 W/m -12,9 C -7,4 C 11,0 km/h (2 Bft)
01.03.2018 20:00 22,4 C -7,6 C 55 % 66 % 1009,3 hPa 0,0 l/m 7,5 km/h (2 Bft) O-NO 0,00 h 0,0 UV-I 0 W/m -12,8 C -9,9 C 14,5 km/h (3 Bft)
01.03.2018 21:00 22,1 C -7,9 C 56 % 69 % 1008,8 hPa 0,0 l/m 8,1 km/h (2 Bft) O-NO 0,00 h 0,0 UV-I 0 W/m -12,6 C -10,5 C 15,5 km/h (3 Bft)
01.03.2018 22:00 22,3 C -8,2 C 57 % 71 % 1008,1 hPa 0,0 l/m 6,9 km/h (2 Bft) O 0,00 h 0,0 UV-I 0 W/m -12,5 C -9,7 C 13,9 km/h (3 Bft)
01.03.2018 23:00 22,3 C -8,3 C 57 % 72 % 1007,5 hPa 0,0 l/m 5,4 km/h (1 Bft) O 0,00 h 0,0 UV-I 0 W/m -12,5 C -9,2 C 11,5 km/h (2 Bft)
02.03.2018 00:00 22,3 C -8,5 C 56 % 72 % 1006,5 hPa 0,0 l/m 6,8 km/h (2 Bft) O-NO 0,00 h 0,0 UV-I 0 W/m -12,6 C -10,1 C 14,5 km/h (3 Bft)
02.03.2018 01:00 22,4 C -8,7 C 58 % 74 % 1005,6 hPa 0,0 l/m 6,2 km/h (2 Bft) O-NO 0,00 h 0,0 UV-I 0 W/m -12,5 C -9,8 C 12,5 km/h (3 Bft)
02.03.2018 02:00 22,4 C -8,7 C 59 % 75 % 1004,9 hPa 0,0 l/m 6,2 km/h (2 Bft) O-NO 0,00 h 0,0 UV-I 0 W/m -12,3 C -10,1 C 12,4 km/h (3 Bft)
02.03.2018 03:00 22,3 C -8,7 C 59 % 76 % 1004,3 hPa 0,0 l/m 7,9 km/h (2 Bft) O-NO 0,00 h 0,0 UV-I 0 W/m -12,1 C -11,4 C 15,1 km/h (3 Bft)
02.03.2018 04:00 22,3 C -8,8 C 60 % 77 % 1003,7 hPa 0,0 l/m 7,4 km/h (2 Bft) O-NO 0,00 h 0,0 UV-I 0 W/m -12,1 C -11,2 C 14,6 km/h (3 Bft)
02.03.2018 05:00 22,3 C -9,1 C 60 % 78 % 1003,1 hPa 0,0 l/m 7,4 km/h (2 Bft) O-NO 0,00 h 0,0 UV-I 0 W/m -12,2 C -11,2 C 14,1 km/h (3 Bft)
02.03.2018 06:00 22,3 C -9,1 C 60 % 78 % 1002,5 hPa 0,0 l/m 8,8 km/h (2 Bft) O-NO 0,00 h 0,0 UV-I 0 W/m -12,2 C -12,2 C 17,0 km/h (3 Bft)
02.03.2018 07:00 22,3 C -8,8 C 60 % 79 % 1002,1 hPa 0,0 l/m 8,9 km/h (2 Bft) O-NO 0,00 h 0,0 UV-I 25 W/m -11,8 C -12,2 C 16,8 km/h (3 Bft)
02.03.2018 08:00 22,3 C -8,1 C 58 % 77 % 1001,4 hPa 0,0 l/m 9,4 km/h (2 Bft) O-NO 0,33 h 0,6 UV-I 123 W/m -11,4 C -12,0 C 17,9 km/h (3 Bft)
02.03.2018 09:00 22,7 C -7,1 C 55 % 73 % 1000,9 hPa 0,0 l/m 8,9 km/h (2 Bft) O 0,98 h 0,8 UV-I 212 W/m -11,1 C -10,5 C 18,1 km/h (3 Bft)
02.03.2018 10:00 23,0 C -6,0 C 53 % 69 % 1000,7 hPa 0,0 l/m 8,6 km/h (2 Bft) O-NO 1,00 h 1,3 UV-I 366 W/m -10,7 C -8,9 C 16,5 km/h (3 Bft)
02.03.2018 11:00 23,5 C -4,4 C 49 % 65 % 999,9 hPa 0,0 l/m 8,4 km/h (2 Bft) O-NO 1,00 h 1,7 UV-I 470 W/m -10,0 C -6,9 C 16,4 km/h (3 Bft)
02.03.2018 12:00 23,8 C -3,0 C 48 % 60 % 999,5 hPa 0,0 l/m 8,6 km/h (2 Bft) O-NO 1,00 h 1,8 UV-I 514 W/m -9,7 C -5,6 C 16,4 km/h (3 Bft)
02.03.2018 13:00 24,1 C -2,3 C 48 % 58 % 998,9 hPa 0,0 l/m 8,5 km/h (2 Bft) O-NO 0,98 h 1,7 UV-I 478 W/m -9,3 C -4,9 C 16,3 km/h (3 Bft)
02.03.2018 14:00 24,0 C -2,1 C 49 % 59 % 998,8 hPa 0,0 l/m 8,6 km/h (2 Bft) O-NO 1,02 h 1,2 UV-I 375 W/m -8,9 C -4,7 C 17,0 km/h (3 Bft)
02.03.2018 15:00 23,8 C -3,5 C 50 % 64 % 998,8 hPa 0,0 l/m 8,2 km/h (2 Bft) O-NO 0,70 h 0,8 UV-I 197 W/m -9,3 C -6,3 C 15,1 km/h (3 Bft)
02.03.2018 16:00 23,5 C -4,7 C 50 % 69 % 999,9 hPa 0,0 l/m 6,5 km/h (2 Bft) NO 0,02 h 0,5 UV-I 67 W/m -9,6 C -5,8 C 13,0 km/h (3 Bft)
02.03.2018 17:00 23,1 C -5,3 C 51 % 71 % 1001,1 hPa 0,0 l/m 5,3 km/h (1 Bft) O-NO 0,00 h 0,0 UV-I 9 W/m -9,6 C -5,9 C 10,3 km/h (2 Bft)
02.03.2018 18:00 23,1 C -5,6 C 54 % 73 % 1001,9 hPa 0,0 l/m 3,4 km/h (1 Bft) O-NO 0,00 h 0,0 UV-I 0 W/m -9,7 C -5,9 C 7,4 km/h (2 Bft)
02.03.2018 19:00 22,8 C -5,7 C 55 % 74 % 1002,2 hPa 0,0 l/m 2,6 km/h (1 Bft) O-NO 0,00 h 0,0 UV-I 0 W/m -9,6 C -5,7 C 5,6 km/h (1 Bft)
02.03.2018 20:00 22,7 C -5,6 C 55 % 74 % 1002,2 hPa 0,0 l/m 1,7 km/h (1 Bft) O-NO 0,00 h 0,0 UV-I 0 W/m -9,4 C -5,6 C 4,1 km/h (1 Bft)
02.03.2018 21:00 22,8 C -5,5 C 55 % 75 % 1002,3 hPa 0,0 l/m 1,1 km/h (1 Bft) O-NO 0,00 h 0,0 UV-I 0 W/m -9,3 C -5,5 C 2,8 km/h (1 Bft)
02.03.2018 22:00 23,0 C -5,4 C 55 % 75 % 1002,2 hPa 0,0 l/m 0,7 km/h (0 Bft) O-NO 0,00 h 0,0 UV-I 0 W/m -9,1 C -5,4 C 2,4 km/h (1 Bft)
02.03.2018 23:00 22,9 C -5,4 C 55 % 77 % 1002,2 hPa 0,0 l/m 0,9 km/h (0 Bft) O 0,00 h 0,0 UV-I 0 W/m -8,8 C -5,4 C 2,7 km/h (1 Bft)
03.03.2018 00:00 22,8 C -5,4 C 56 % 79 % 1002,2 hPa 0,0 l/m 0,9 km/h (0 Bft) O 0,00 h 0,0 UV-I 0 W/m -8,5 C -5,4 C 2,9 km/h (1 Bft)
03.03.2018 01:00 22,7 C -5,4 C 56 % 81 % 1002,4 hPa 0,0 l/m 1,1 km/h (1 Bft) O-NO 0,00 h 0,0 UV-I 0 W/m -8,2 C -5,4 C 3,1 km/h (1 Bft)
03.03.2018 02:00 22,6 C -5,5 C 56 % 81 % 1002,3 hPa 0,0 l/m 1,2 km/h (1 Bft) O-NO 0,00 h 0,0 UV-I 0 W/m -8,2 C -5,5 C 3,1 km/h (1 Bft)
03.03.2018 03:00 22,4 C -5,5 C 56 % 82 % 1002,5 hPa 0,0 l/m 3,5 km/h (1 Bft) SO 0,00 h 0,0 UV-I 0 W/m -8,0 C -5,6 C 6,6 km/h (2 Bft)
03.03.2018 04:00 22,3 C -5,5 C 57 % 83 % 1002,1 hPa 0,0 l/m 1,8 km/h (1 Bft) O 0,00 h 0,0 UV-I 0 W/m -8,0 C -5,5 C 4,6 km/h (1 Bft)
03.03.2018 05:00 22,3 C -5,6 C 57 % 85 % 1001,8 hPa 0,2 l/m 1,0 km/h (0 Bft) O-NO 0,00 h 0,0 UV-I 0 W/m -7,7 C -5,6 C 2,5 km/h (1 Bft)
03.03.2018 06:00 22,4 C -5,9 C 56 % 87 % 1001,5 hPa 0,2 l/m 0,9 km/h (0 Bft) O-NO 0,00 h 0,0 UV-I 0 W/m -7,7 C -5,9 C 2,9 km/h (1 Bft)
03.03.2018 07:00 22,4 C -6,1 C 56 % 88 % 1001,2 hPa 0,0 l/m 1,2 km/h (1 Bft) O-NO 0,00 h 0,0 UV-I 17 W/m -7,8 C -6,1 C 3,6 km/h (1 Bft)
03.03.2018 08:00 22,6 C -5,2 C 56 % 84 % 1001,1 hPa 0,0 l/m 1,7 km/h (1 Bft) O-SO 0,02 h 0,0 UV-I 72 W/m -7,4 C -5,2 C 4,2 km/h (1 Bft)
03.03.2018 09:00 22,7 C -4,1 C 55 % 81 % 1000,8 hPa 0,0 l/m 4,4 km/h (1 Bft) O-NO 0,73 h 0,7 UV-I 237 W/m -6,8 C -4,3 C 8,9 km/h (2 Bft)
03.03.2018 10:00 23,2 C -3,6 C 55 % 80 % 1000,9 hPa 0,0 l/m 2,6 km/h (1 Bft) O 1,00 h 0,9 UV-I 247 W/m -6,5 C -3,6 C 6,2 km/h (2 Bft)
03.03.2018 11:00 23,3 C -3,0 C 55 % 81 % 1000,8 hPa 0,0 l/m 3,7 km/h (1 Bft) O-NO 1,00 h 1,1 UV-I 257 W/m -5,8 C -3,2 C 7,7 km/h (2 Bft)
03.03.2018 12:00 23,8 C -1,1 C 55 % 78 % 1000,3 hPa 0,0 l/m 5,1 km/h (1 Bft) O-NO 1,00 h 1,4 UV-I 376 W/m -4,4 C -1,5 C 10,6 km/h (2 Bft)
03.03.2018 13:00 24,1 C -0,0 C 54 % 74 % 1000,0 hPa 0,0 l/m 5,1 km/h (1 Bft) O 1,00 h 1,6 UV-I 475 W/m -4,2 C -0,5 C 10,9 km/h (2 Bft)
03.03.2018 14:00 24,1 C 1,0 C 50 % 67 % 1000,0 hPa 0,0 l/m 4,5 km/h (1 Bft) O-NO 1,00 h 1,1 UV-I 318 W/m -4,4 C 0,6 C 10,2 km/h (2 Bft)
03.03.2018 15:00 23,7 C 0,4 C 49 % 67 % 1000,3 hPa 0,0 l/m 3,3 km/h (1 Bft) NO 0,43 h 0,7 UV-I 144 W/m -5,0 C 0,2 C 7,9 km/h (2 Bft)
03.03.2018 16:00 23,3 C 0,1 C 49 % 67 % 1000,8 hPa 0,0 l/m 2,1 km/h (1 Bft) O 0,00 h 0,0 UV-I 25 W/m -5,3 C 0,0 C 5,4 km/h (1 Bft)
03.03.2018 17:00 23,1 C -0,3 C 50 % 67 % 1001,4 hPa 0,0 l/m 2,2 km/h (1 Bft) O-NO 0,00 h 0,0 UV-I 23 W/m -5,7 C -0,3 C 5,4 km/h (1 Bft)
03.03.2018 18:00 23,0 C -1,2 C 52 % 67 % 1002,1 hPa 0,0 l/m 2,7 km/h (1 Bft) O-NO 0,00 h 0,0 UV-I 0 W/m -6,5 C -1,2 C 5,7 km/h (1 Bft)
03.03.2018 19:00 22,9 C -2,2 C 53 % 67 % 1002,6 hPa 0,0 l/m 1,7 km/h (1 Bft) O-NO 0,00 h 0,0 UV-I 0 W/m -7,4 C -2,2 C 4,2 km/h (1 Bft)
03.03.2018 20:00 22,8 C -2,9 C 54 % 66 % 1003,2 hPa 0,0 l/m 2,3 km/h (1 Bft) O-NO 0,00 h 0,0 UV-I 0 W/m -8,3 C -3,0 C 5,2 km/h (1 Bft)
03.03.2018 21:00 22,8 C -3,5 C 54 % 66 % 1003,7 hPa 0,0 l/m 2,5 km/h (1 Bft) O-NO 0,00 h 0,0 UV-I 0 W/m -9,0 C -3,5 C 6,1 km/h (2 Bft)
03.03.2018 22:00 22,7 C -4,0 C 55 % 66 % 1003,8 hPa 0,0 l/m 4,2 km/h (1 Bft) O-NO 0,00 h 0,0 UV-I 0 W/m -9,4 C -4,1 C 8,7 km/h (2 Bft)
03.03.2018 23:00 22,7 C -4,5 C 55 % 68 % 1004,2 hPa 0,0 l/m 3,2 km/h (1 Bft) O-NO 0,00 h 0,0 UV-I 0 W/m -9,5 C -4,5 C 7,0 km/h (2 Bft)
04.03.2018 00:00 22,6 C -5,1 C 56 % 71 % 1004,5 hPa 0,0 l/m 1,2 km/h (1 Bft) O-NO 0,00 h 0,0 UV-I 0 W/m -9,6 C -5,1 C 3,0 km/h (1 Bft)
04.03.2018 01:00 22,4 C -5,6 C 56 % 73 % 1004,7 hPa 0,0 l/m 1,8 km/h (1 Bft) O-NO 0,00 h 0,0 UV-I 0 W/m -9,7 C -5,6 C 4,3 km/h (1 Bft)
04.03.2018 02:00 22,2 C -5,2 C 56 % 74 % 1004,9 hPa 0,0 l/m 1,7 km/h (1 Bft) O-NO 0,00 h 0,0 UV-I 0 W/m -9,1 C -5,2 C 4,1 km/h (1 Bft)
04.03.2018 03:00 22,2 C -4,4 C 56 % 74 % 1005,1 hPa 0,0 l/m 1,6 km/h (1 Bft) O-NO 0,00 h 0,0 UV-I 0 W/m -8,4 C -4,4 C 4,0 km/h (1 Bft)
04.03.2018 04:00 22,1 C -4,1 C 56 % 75 % 1005,2 hPa 0,0 l/m 0,6 km/h (0 Bft) O-NO 0,00 h 0,0 UV-I 0 W/m -7,9 C -4,1 C 1,6 km/h (1 Bft)
04.03.2018 05:00 22,1 C -4,4 C 56 % 82 % 1005,1 hPa 0,2 l/m 1,1 km/h (1 Bft) O-NO 0,00 h 0,0 UV-I 0 W/m -7,0 C -4,4 C 3,3 km/h (1 Bft)
04.03.2018 06:00 22,2 C -4,8 C 56 % 87 % 1004,9 hPa 0,2 l/m 3,4 km/h (1 Bft) O-NO 0,00 h 0,0 UV-I 0 W/m -6,7 C -4,8 C 6,9 km/h (2 Bft)
04.03.2018 07:00 22,4 C -4,8 C 56 % 87 % 1005,0 hPa 0,0 l/m 4,2 km/h (1 Bft) O-NO 0,00 h 0,0 UV-I 12 W/m -6,7 C -5,0 C 8,7 km/h (2 Bft)
04.03.2018 08:00 22,4 C -4,3 C 56 % 86 % 1005,2 hPa 0,0 l/m 2,7 km/h (1 Bft) O-NO 0,00 h 0,0 UV-I 34 W/m -6,2 C -4,3 C 6,3 km/h (2 Bft)
04.03.2018 09:00 22,6 C -3,3 C 56 % 88 % 1005,3 hPa 0,0 l/m 1,7 km/h (1 Bft) NO 0,00 h 0,0 UV-I 63 W/m -5,0 C -3,3 C 3,8 km/h (1 Bft)
04.03.2018 10:00 22,7 C -2,1 C 55 % 86 % 1005,0 hPa 0,0 l/m 1,4 km/h (1 Bft) O-NO 0,00 h 0,8 UV-I 90 W/m -4,2 C -2,1 C 3,1 km/h (1 Bft)
04.03.2018 11:00 22,8 C -0,5 C 56 % 84 % 1004,9 hPa 0,0 l/m 0,8 km/h (0 Bft) NO 0,93 h 1,2 UV-I 225 W/m -2,9 C -0,5 C 1,8 km/h (1 Bft)
04.03.2018 12:00 22,9 C 1,2 C 57 % 81 % 1004,3 hPa 0,0 l/m 2,1 km/h (1 Bft) O-NO 1,00 h 1,4 UV-I 268 W/m -1,6 C 1,1 C 4,8 km/h (1 Bft)
04.03.2018 13:00 23,3 C 3,0 C 55 % 79 % 1003,6 hPa 0,0 l/m 0,7 km/h (0 Bft) O-NO 1,00 h 1,6 UV-I 397 W/m -0,2 C 3,0 C 1,7 km/h (1 Bft)
04.03.2018 14:00 23,7 C 4,7 C 53 % 72 % 1003,2 hPa 0,0 l/m 1,2 km/h (1 Bft) O-NO 1,00 h 1,4 UV-I 413 W/m 0,1 C 4,7 C 3,5 km/h (1 Bft)
04.03.2018 15:00 23,8 C 4,6 C 54 % 70 % 1002,9 hPa 0,0 l/m 2,8 km/h (1 Bft) O-NO 1,00 h 0,9 UV-I 294 W/m -0,4 C 4,4 C 6,1 km/h (2 Bft)
04.03.2018 16:00 23,7 C 2,7 C 54 % 76 % 1002,5 hPa 0,0 l/m 5,1 km/h (1 Bft) O-NO 0,43 h 0,6 UV-I 129 W/m -1,1 C 2,3 C 9,6 km/h (2 Bft)
04.03.2018 17:00 23,3 C 0,7 C 54 % 81 % 1002,4 hPa 0,0 l/m 3,1 km/h (1 Bft) O-NO 0,00 h 0,0 UV-I 18 W/m -2,2 C 0,7 C 6,7 km/h (2 Bft)
04.03.2018 18:00 23,0 C -0,2 C 56 % 81 % 1001,9 hPa 0,0 l/m 4,8 km/h (1 Bft) O-NO 0,00 h 0,0 UV-I 0 W/m -3,0 C -0,3 C 9,8 km/h (2 Bft)
04.03.2018 19:00 22,9 C -0,4 C 58 % 76 % 1001,4 hPa 0,0 l/m 5,1 km/h (1 Bft) O-NO 0,00 h 0,0 UV-I 0 W/m -4,1 C -0,7 C 9,8 km/h (2 Bft)
04.03.2018 20:00 22,7 C -0,8 C 59 % 75 % 1001,6 hPa 0,0 l/m 0,8 km/h (0 Bft) O-NO 0,00 h 0,0 UV-I 0 W/m -4,7 C -0,8 C 1,7 km/h (1 Bft)
04.03.2018 21:00 22,8 C -1,2 C 59 % 77 % 1001,4 hPa 0,0 l/m 3,7 km/h (1 Bft) O-NO 0,00 h 0,0 UV-I 0 W/m -4,8 C -1,4 C 7,2 km/h (2 Bft)
04.03.2018 22:00 22,8 C -0,8 C 59 % 75 % 1001,1 hPa 0,0 l/m 3,4 km/h (1 Bft) O-NO 0,00 h 0,0 UV-I 0 W/m -4,6 C -0,9 C 6,8 km/h (2 Bft)
04.03.2018 23:00 22,8 C -0,8 C 59 % 75 % 1001,2 hPa 0,0 l/m 0,2 km/h (0 Bft) O-NO 0,00 h 0,0 UV-I 0 W/m -4,7 C -0,8 C 0,7 km/h (0 Bft)
Min-Datum _ 01.03.18 27.02.18 26.02.18 26.02.18 02.03.18 - 26.02.18 - - - - 28.02.18 02.03.18 26.02.18
_ Min-Zeit 00:59 07:15 13:53 14:08 13:43 - 04:02 - - - - 05:08 05:54 07:34
Minimum _ 21,8 C -14,3 C 45 % 37 % 998,6 hPa - 0,0 km/h (0 Bft) - - - - -16,8 C -21,9 C 0,0 km/h (0 Bft)
Max-Datum _ 26.02.18 04.03.18 02.03.18 03.03.18 26.02.18 03.03.18 01.03.18 - 03.03.18 01.03.18 26.02.18 04.03.18 04.03.18 02.03.18
_ Max-Zeit 12:14 14:58 04:48 06:39 00:00 05:18 09:59 - 10:33 11:53 12:16 13:48 14:58 06:51
Maximum _ 25,3 C 5,7 C 61 % 88 % 1027,5 hPa 0,2 l/m 20,9 km/h
O-NO (4 Bft)
- 0,12 h 1,9 UV-I 638 W/m 1,1 C 5,7 C 35,4 km/h
O-NO (5 Bft)
Durchschnitt _ 23,0 C -7,0 C 54 % 70 % 1012,4 hPa #0,8 l/m 5,1 km/h (1 Bft) O-NO #46:31 h 1,1 UV-I 232 W/m -11,7 C -8,1 C 9,7 km/h (2 Bft)